WADD/DPS METAR and TAF weather

Enter ICAO airport designator
Station Type Date Time Source
WADD METAR 2020/09/22 16:30 UTC NOAA

WADD 221630Z 19004KT 9999 SCT016 26/26 Q1012 NOSIG=


Station Type Date Time Source
WADD Decoded METAR 2020/09/22 16:30 UTC NOAA

Station name not available
Sep 22, 2020 - 12:30 PM EDT / 2020.09.22 1630 UTC
Wind: from the S (190 degrees) at 5 MPH (4 KT):0
Visibility: greater than 7 mile(s):0
Sky conditions: partly cloudy
Temperature: 78 F (26 C)
Dew Point: 78 F (26 C)
Relative Humidity: 100%
Pressure (altimeter): 29.88 in. Hg (1012 hPa)
ob: WADD 221630Z 19004KT 9999 SCT016 26/26 Q1012 NOSIG=
cycle: 16

Station Type Date Time Source
WADD TAF 2020/09/22 12:09 UTC NOAA

TAF WADD 221100Z 2212/2312 13010KT 9999 SCT016
TEMPO 2213/2217 BKN015

Example: see airport list